createdAt,value
2023-04-25T00:00:53.685Z,5.20
2023-04-25T00:03:26.548Z,6.93
2023-04-25T00:05:58.067Z,5.05
2023-04-25T00:08:27.724Z,4.97
2023-04-25T00:10:56.186Z,4.55
2023-04-25T00:13:28.839Z,4.03
2023-04-25T00:15:59.782Z,6.05
2023-04-25T00:18:29.954Z,4.20
2023-04-25T00:21:01.347Z,3.78
2023-04-25T00:23:31.129Z,2.92
2023-04-25T00:26:00.608Z,4.30
2023-04-25T00:28:30.140Z,6.68
2023-04-25T00:30:58.555Z,5.60
2023-04-25T00:33:35.112Z,4.95
2023-04-25T00:36:18.549Z,4.35
2023-04-25T00:38:47.090Z,4.45
2023-04-25T00:41:15.959Z,3.67
2023-04-25T00:43:44.826Z,4.93
2023-04-25T00:46:15.260Z,2.83
2023-04-25T00:48:43.936Z,4.97
2023-04-25T00:51:19.133Z,4.85
2023-04-25T00:53:53.001Z,3.00
2023-04-25T00:56:34.811Z,5.00
2023-04-25T00:59:03.162Z,4.00
2023-04-25T01:01:33.515Z,3.38
2023-04-25T01:04:03.830Z,4.93
2023-04-25T01:06:35.291Z,3.50
2023-04-25T01:09:06.201Z,3.58
2023-04-25T01:11:39.310Z,3.60
2023-04-25T01:14:16.738Z,4.68
2023-04-25T01:16:48.065Z,4.28
2023-04-25T01:19:19.912Z,5.22
2023-04-25T01:21:54.108Z,3.38
2023-04-25T01:24:23.573Z,3.38
2023-04-25T01:26:58.227Z,3.17
2023-04-25T01:29:28.539Z,5.72
2023-04-25T01:32:01.182Z,5.43
2023-04-25T01:34:37.229Z,4.05
2023-04-25T01:37:10.352Z,4.03
2023-04-25T01:39:38.974Z,3.25
2023-04-25T01:42:09.701Z,3.38
2023-04-25T01:44:40.752Z,3.55
2023-04-25T01:47:19.235Z,5.55
2023-04-25T01:49:48.854Z,7.30
2023-04-25T01:52:19.000Z,3.92
2023-04-25T01:54:49.119Z,4.65
2023-04-25T01:57:18.247Z,4.05
2023-04-25T01:59:47.056Z,7.10
2023-04-25T02:02:15.690Z,8.07
2023-04-25T02:04:46.148Z,6.03
2023-04-25T02:07:17.020Z,7.47
2023-04-25T02:09:47.237Z,8.77
2023-04-25T02:12:15.690Z,4.47
2023-04-25T02:14:44.246Z,4.90
2023-04-25T02:17:13.811Z,13.30
2023-04-25T02:19:44.486Z,10.65
2023-04-25T02:22:18.719Z,11.25
2023-04-25T02:24:50.802Z,11.15
2023-04-25T02:27:21.242Z,8.88
2023-04-25T02:29:51.963Z,6.30
2023-04-25T02:32:20.619Z,8.40
2023-04-25T02:34:59.678Z,8.73
2023-04-25T02:37:28.122Z,6.90
2023-04-25T02:40:05.556Z,10.35
2023-04-25T02:42:33.993Z,5.60
2023-04-25T02:45:03.830Z,6.13
2023-04-25T02:47:32.772Z,6.45
2023-04-25T02:50:03.291Z,5.40
2023-04-25T02:52:34.659Z,7.82
2023-04-25T02:55:08.294Z,6.90
2023-04-25T02:57:36.777Z,6.30
2023-04-25T03:00:07.014Z,7.47
2023-04-25T03:02:36.586Z,7.57
2023-04-25T03:05:06.000Z,6.32
2023-04-25T03:07:34.510Z,7.18
2023-04-25T03:10:09.996Z,5.63
2023-04-25T03:12:43.327Z,9.60
2023-04-25T03:15:12.436Z,7.50
2023-04-25T03:17:41.613Z,9.95
2023-04-25T03:20:11.961Z,7.47
2023-04-25T03:22:40.900Z,9.25
2023-04-25T03:25:13.188Z,7.57
2023-04-25T03:27:47.788Z,6.28
2023-04-25T03:30:17.449Z,6.32
2023-04-25T03:32:48.303Z,9.23
2023-04-25T03:35:16.997Z,7.82
2023-04-25T03:37:51.596Z,9.85
2023-04-25T03:40:21.615Z,11.10
2023-04-25T03:42:50.161Z,9.30
2023-04-25T03:45:18.815Z,8.05
2023-04-25T03:47:53.542Z,8.50
2023-04-25T03:50:28.131Z,8.43
2023-04-25T03:52:58.717Z,5.85
2023-04-25T03:55:29.592Z,8.27
2023-04-25T03:58:00.203Z,7.53
2023-04-25T04:00:29.966Z,8.18
2023-04-25T04:02:59.549Z,8.13
2023-04-25T04:05:30.749Z,7.13
2023-04-25T04:07:59.214Z,10.18
2023-04-25T04:10:35.989Z,10.70
2023-04-25T04:13:04.316Z,9.70
2023-04-25T04:15:34.490Z,9.02
2023-04-25T04:18:04.720Z,9.02
2023-04-25T04:20:35.639Z,8.90
2023-04-25T04:23:04.383Z,16.38
2023-04-25T04:25:40.937Z,13.75
2023-04-25T04:28:12.431Z,12.13
2023-04-25T04:30:42.373Z,9.57
2023-04-25T04:33:14.429Z,9.15
2023-04-25T04:35:44.225Z,9.52
2023-04-25T04:38:13.893Z,9.77
2023-04-25T04:40:44.155Z,10.75
2023-04-25T04:43:13.690Z,7.80
2023-04-25T04:45:42.475Z,11.38
2023-04-25T04:48:15.385Z,12.00
2023-04-25T04:50:46.455Z,11.73
2023-04-25T04:53:21.437Z,10.35
2023-04-25T04:55:51.520Z,9.85
2023-04-25T04:58:21.195Z,9.20
2023-04-25T05:00:49.980Z,10.77
2023-04-25T05:03:19.607Z,12.93
2023-04-25T05:05:49.511Z,10.07
2023-04-25T05:08:20.942Z,16.67
2023-04-25T05:10:50.869Z,13.68
2023-04-25T05:13:20.336Z,13.15
2023-04-25T05:15:48.729Z,10.05
2023-04-25T05:18:31.201Z,10.73
2023-04-25T05:20:59.693Z,15.90
2023-04-25T05:23:33.257Z,15.02
2023-04-25T05:26:14.941Z,10.95
2023-04-25T05:28:44.469Z,10.55
2023-04-25T05:31:15.067Z,15.70
2023-04-25T05:33:43.475Z,16.30
2023-04-25T05:36:12.226Z,13.82
2023-04-25T05:38:46.219Z,10.88
2023-04-25T05:41:17.618Z,14.25
2023-04-25T05:43:50.190Z,12.98
2023-04-25T05:46:19.336Z,11.27
2023-04-25T05:48:49.385Z,13.18
2023-04-25T05:51:19.600Z,13.23
2023-04-25T05:53:48.157Z,14.70
2023-04-25T05:56:18.281Z,9.93
2023-04-25T05:58:46.560Z,10.00
2023-04-25T06:01:15.730Z,12.07
2023-04-25T06:03:45.452Z,10.93
2023-04-25T06:06:15.153Z,13.13
2023-04-25T06:08:46.056Z,14.23
2023-04-25T06:11:14.802Z,9.73
2023-04-25T06:13:44.827Z,14.40
2023-04-25T06:16:13.504Z,9.88
2023-04-25T06:18:42.107Z,11.88
2023-04-25T06:21:10.588Z,13.00
2023-04-25T06:23:39.858Z,9.43
2023-04-25T06:26:08.795Z,11.02
2023-04-25T06:28:37.416Z,11.57
2023-04-25T06:31:07.440Z,10.73
2023-04-25T06:33:35.774Z,13.90
2023-04-25T06:36:05.684Z,11.60
2023-04-25T06:38:36.224Z,14.88
2023-04-25T06:41:04.986Z,11.30
2023-04-25T06:43:34.687Z,15.68
2023-04-25T06:46:03.467Z,12.70
2023-04-25T06:48:33.348Z,12.52
2023-04-25T06:51:01.862Z,11.30
2023-04-25T06:53:31.373Z,10.55
2023-04-25T06:55:59.754Z,16.00
2023-04-25T06:58:28.734Z,16.10
2023-04-25T07:00:57.688Z,17.63
2023-04-25T07:03:26.779Z,15.70
2023-04-25T07:05:56.796Z,11.05
2023-04-25T07:08:25.354Z,14.27
2023-04-25T07:10:54.000Z,14.48
2023-04-25T07:13:22.661Z,14.82
2023-04-25T07:15:51.260Z,10.15
2023-04-25T07:18:19.816Z,12.63
2023-04-25T07:20:48.583Z,12.23
2023-04-25T07:23:19.247Z,11.27
2023-04-25T07:25:48.056Z,12.75
2023-04-25T07:28:18.827Z,16.30
2023-04-25T07:30:47.825Z,14.02
2023-04-25T07:33:16.481Z,14.60
2023-04-25T07:35:44.874Z,13.93
2023-04-25T07:38:13.393Z,17.40
2023-04-25T07:40:43.454Z,16.13
2023-04-25T07:43:13.451Z,15.43
2023-04-25T07:45:43.987Z,11.65
2023-04-25T07:48:12.785Z,17.20
2023-04-25T07:50:41.537Z,15.10
2023-04-25T07:53:09.909Z,16.52
2023-04-25T07:55:41.592Z,10.25
2023-04-25T07:58:12.549Z,14.82
2023-04-25T08:00:40.980Z,15.50
2023-04-25T08:03:10.132Z,16.02
2023-04-25T08:05:39.165Z,24.33
2023-04-25T08:08:08.692Z,18.67
2023-04-25T08:10:37.412Z,21.27
2023-04-25T08:13:06.005Z,16.25
2023-04-25T08:15:36.295Z,16.52
2023-04-25T08:18:04.921Z,15.45
2023-04-25T08:20:33.393Z,17.80
2023-04-25T08:23:01.857Z,20.65
2023-04-25T08:25:31.532Z,19.05
2023-04-25T08:28:01.236Z,15.73
2023-04-25T08:30:29.547Z,17.35
2023-04-25T08:32:59.833Z,13.65
2023-04-25T08:35:30.853Z,16.75
2023-04-25T08:37:59.654Z,11.93
2023-04-25T08:40:31.571Z,16.20
2023-04-25T08:43:01.214Z,16.67
2023-04-25T08:45:33.430Z,14.88
2023-04-25T08:48:05.346Z,17.42
2023-04-25T08:50:33.983Z,17.20
2023-04-25T08:53:07.766Z,11.20
2023-04-25T08:55:36.855Z,11.90
2023-04-25T08:58:06.861Z,15.65
2023-04-25T09:00:35.652Z,17.65
2023-04-25T09:03:06.767Z,10.38
2023-04-25T09:05:36.635Z,8.95
2023-04-25T09:08:05.211Z,10.73
2023-04-25T09:10:33.805Z,10.95
2023-04-25T09:13:06.965Z,14.82
2023-04-25T09:15:35.548Z,14.57
2023-04-25T09:18:06.320Z,12.25
2023-04-25T09:20:56.379Z,17.50
2023-04-25T09:23:29.692Z,12.10
2023-04-25T09:25:58.484Z,12.10
2023-04-25T09:28:30.900Z,10.57
2023-04-25T09:31:00.179Z,10.68
2023-04-25T09:33:34.707Z,7.10
2023-04-25T09:36:05.934Z,7.07
2023-04-25T09:38:42.480Z,5.65
2023-04-25T09:41:12.406Z,7.43
2023-04-25T09:43:41.987Z,4.15
2023-04-25T09:46:12.536Z,7.05
2023-04-25T09:48:42.985Z,7.78
2023-04-25T09:51:12.837Z,6.00
2023-04-25T09:53:43.640Z,8.35
2023-04-25T09:56:14.140Z,11.18
2023-04-25T09:58:43.918Z,8.25
2023-04-25T10:01:14.055Z,8.32
2023-04-25T10:03:45.879Z,7.97
2023-04-25T10:06:23.005Z,4.85
2023-04-25T10:08:56.996Z,6.88
2023-04-25T10:11:28.360Z,10.35
2023-04-25T10:13:59.081Z,7.95
2023-04-25T10:16:28.033Z,7.70
2023-04-25T10:18:59.098Z,7.57
2023-04-25T10:21:32.007Z,8.85
2023-04-25T10:24:00.710Z,9.35
2023-04-25T10:26:31.305Z,6.57
2023-04-25T10:29:01.263Z,5.43
2023-04-25T10:31:30.089Z,8.25
2023-04-25T10:34:02.125Z,7.25
2023-04-25T10:36:34.478Z,8.48
2023-04-25T10:39:10.673Z,6.50
2023-04-25T10:41:50.125Z,7.43
2023-04-25T10:44:18.953Z,5.43
2023-04-25T10:46:48.274Z,8.60
2023-04-25T10:49:34.955Z,4.18
2023-04-25T10:52:27.830Z,4.38
2023-04-25T10:54:58.266Z,4.00
2023-04-25T10:57:39.170Z,7.07
2023-04-25T11:00:12.206Z,6.47
2023-04-25T11:02:44.426Z,5.55
2023-04-25T11:05:22.851Z,7.38
2023-04-25T11:08:07.059Z,5.00
2023-04-25T11:10:38.344Z,9.10
2023-04-25T11:13:06.923Z,6.53
2023-04-25T11:15:35.330Z,7.05
2023-04-25T11:18:04.357Z,7.28
2023-04-25T11:20:34.870Z,7.95
2023-04-25T11:25:33.713Z,6.80
2023-04-25T11:28:04.203Z,7.13
2023-04-25T11:30:32.784Z,6.18
2023-04-25T11:33:04.541Z,6.55
2023-04-25T11:35:35.131Z,7.45
2023-04-25T11:38:04.145Z,5.15
2023-04-25T11:40:33.885Z,4.65
2023-04-25T11:43:03.546Z,7.00
2023-04-25T11:45:32.480Z,5.63
2023-04-25T11:48:01.404Z,7.97
2023-04-25T11:50:30.990Z,6.20
2023-04-25T11:53:01.367Z,5.20
2023-04-25T11:55:33.754Z,10.75
2023-04-25T11:58:03.701Z,6.80
2023-04-25T12:00:33.148Z,7.63
2023-04-25T12:03:01.784Z,7.68
2023-04-25T12:05:35.159Z,8.52
2023-04-25T12:08:16.985Z,6.15
2023-04-25T12:10:46.493Z,7.78
2023-04-25T12:13:23.595Z,5.72
2023-04-25T12:15:52.750Z,6.55
2023-04-25T12:18:28.905Z,8.50
2023-04-25T12:20:57.485Z,9.20
2023-04-25T12:23:31.647Z,6.88
2023-04-25T12:26:00.380Z,6.25
2023-04-25T12:28:29.774Z,6.53
2023-04-25T12:31:00.375Z,8.60
2023-04-25T12:33:30.318Z,6.85
2023-04-25T12:36:00.204Z,9.30
2023-04-25T12:38:32.082Z,6.95
2023-04-25T12:41:01.136Z,6.32
2023-04-25T12:43:30.387Z,8.13
2023-04-25T12:45:59.392Z,8.65
2023-04-25T12:48:27.800Z,9.68
2023-04-25T12:50:56.136Z,6.28
2023-04-25T12:53:26.119Z,8.20
2023-04-25T12:55:57.190Z,8.38
2023-04-25T12:58:26.619Z,8.40
2023-04-25T13:00:55.319Z,9.43
2023-04-25T13:03:24.771Z,8.25
2023-04-25T13:05:54.063Z,6.45
2023-04-25T13:08:22.381Z,7.50
2023-04-25T13:10:51.068Z,11.77
2023-04-25T13:13:21.557Z,10.30
2023-04-25T13:15:50.539Z,8.82
2023-04-25T13:18:20.238Z,7.07
2023-04-25T13:20:49.008Z,6.82
2023-04-25T13:23:17.754Z,7.25
2023-04-25T13:25:46.169Z,7.82
2023-04-25T13:28:15.193Z,9.88
2023-04-25T13:30:46.750Z,7.55
2023-04-25T13:33:18.058Z,7.50
2023-04-25T13:35:48.034Z,11.60
2023-04-25T13:38:16.844Z,10.48
2023-04-25T13:40:48.908Z,9.95
2023-04-25T13:43:23.388Z,12.55
2023-04-25T13:45:53.920Z,13.98
2023-04-25T13:48:23.835Z,12.73
2023-04-25T13:50:52.673Z,9.20
2023-04-25T13:53:21.233Z,11.50
2023-04-25T13:55:51.671Z,10.02
2023-04-25T13:58:21.873Z,13.95
2023-04-25T14:00:50.231Z,17.33
2023-04-25T14:03:20.477Z,13.70
2023-04-25T14:05:49.160Z,15.25
2023-04-25T14:08:17.703Z,12.88
2023-04-25T14:10:46.256Z,17.20
2023-04-25T14:13:15.137Z,16.52
2023-04-25T14:15:43.569Z,15.25
2023-04-25T14:18:12.231Z,15.57
2023-04-25T14:20:42.372Z,11.48
2023-04-25T14:23:11.012Z,11.35
2023-04-25T14:25:39.863Z,11.68
2023-04-25T14:28:08.347Z,11.35
2023-04-25T14:30:37.499Z,16.60
2023-04-25T14:33:06.716Z,9.63
2023-04-25T14:35:35.470Z,9.38
2023-04-25T14:38:06.828Z,15.02
2023-04-25T14:40:35.161Z,10.00
2023-04-25T14:43:03.841Z,8.40
2023-04-25T14:45:32.812Z,10.77
2023-04-25T14:48:01.714Z,12.38
2023-04-25T14:50:30.251Z,11.02
2023-04-25T14:53:02.035Z,13.98
2023-04-25T14:55:32.379Z,9.95
2023-04-25T14:58:01.076Z,9.05
2023-04-25T15:00:29.585Z,11.98
2023-04-25T15:02:58.924Z,7.93
2023-04-25T15:05:27.794Z,8.85
2023-04-25T15:07:56.659Z,7.78
2023-04-25T15:10:26.439Z,12.35
2023-04-25T15:12:56.722Z,9.75
2023-04-25T15:15:26.894Z,9.98
2023-04-25T15:17:59.071Z,7.95
2023-04-25T15:20:29.157Z,13.88
2023-04-25T15:22:58.446Z,10.90
2023-04-25T15:25:27.446Z,15.13
2023-04-25T15:27:58.773Z,9.43
2023-04-25T15:30:27.272Z,9.32
2023-04-25T15:32:56.670Z,10.30
2023-04-25T15:35:25.412Z,10.25
2023-04-25T15:37:54.005Z,13.70
2023-04-25T15:40:22.814Z,10.50
2023-04-25T15:42:52.989Z,12.38
2023-04-25T15:45:26.332Z,14.35
2023-04-25T15:47:57.634Z,8.70
2023-04-25T15:50:26.343Z,10.55
2023-04-25T15:52:55.971Z,11.38
2023-04-25T15:55:27.221Z,11.98
2023-04-25T15:57:56.052Z,12.52
2023-04-25T16:00:26.984Z,11.23
2023-04-25T16:02:55.813Z,11.60
2023-04-25T16:05:24.785Z,14.73
2023-04-25T16:07:54.455Z,12.00
2023-04-25T16:10:23.111Z,12.15
2023-04-25T16:12:51.999Z,15.35
2023-04-25T16:15:20.694Z,15.57
2023-04-25T16:17:51.241Z,19.80
2023-04-25T16:20:20.866Z,13.63
2023-04-25T16:22:49.428Z,9.70
2023-04-25T16:25:18.258Z,11.07
2023-04-25T16:27:47.455Z,13.23
2023-04-25T16:30:16.112Z,11.02
2023-04-25T16:32:45.616Z,11.05
2023-04-25T16:35:15.824Z,11.45
2023-04-25T16:37:45.000Z,11.35
2023-04-25T16:40:14.097Z,15.60
2023-04-25T16:42:42.948Z,16.88
2023-04-25T16:45:17.903Z,12.85
2023-04-25T16:47:46.675Z,14.85
2023-04-25T16:50:17.352Z,14.63
2023-04-25T16:52:45.902Z,15.88
2023-04-25T16:55:31.221Z,15.60
2023-04-25T16:58:03.592Z,13.90
2023-04-25T17:00:42.045Z,14.23
2023-04-25T17:03:18.941Z,13.65
2023-04-25T17:05:52.322Z,12.95
2023-04-25T17:08:25.691Z,13.90
2023-04-25T17:10:54.070Z,11.23
2023-04-25T17:13:31.029Z,13.80
2023-04-25T17:16:01.026Z,12.68
2023-04-25T17:18:29.742Z,13.82
2023-04-25T17:21:00.708Z,12.73
2023-04-25T17:23:31.807Z,10.60
2023-04-25T17:26:01.663Z,15.25
2023-04-25T17:28:30.290Z,11.63
2023-04-25T17:30:58.819Z,13.35
2023-04-25T17:33:27.989Z,14.68
2023-04-25T17:35:57.196Z,11.68
2023-04-25T17:38:28.161Z,14.27
2023-04-25T17:40:56.804Z,15.00
2023-04-25T17:43:25.315Z,15.50
2023-04-25T17:45:53.994Z,10.13
2023-04-25T17:48:23.759Z,13.88
2023-04-25T17:50:52.872Z,16.35
2023-04-25T17:53:22.583Z,12.93
2023-04-25T17:55:52.605Z,15.30
2023-04-25T17:58:22.470Z,12.80
2023-04-25T18:00:50.966Z,10.32
2023-04-25T18:03:23.629Z,11.30
2023-04-25T18:05:54.941Z,12.70
2023-04-25T18:08:24.909Z,15.45
2023-04-25T18:10:54.824Z,14.55
2023-04-25T18:13:24.612Z,12.10
2023-04-25T18:15:53.329Z,13.20
2023-04-25T18:18:25.833Z,15.55
2023-04-25T18:20:56.087Z,12.85
2023-04-25T18:23:26.520Z,16.20
2023-04-25T18:25:56.579Z,14.40
2023-04-25T18:28:26.116Z,14.60
2023-04-25T18:30:59.020Z,15.10
2023-04-25T18:33:36.816Z,11.77
2023-04-25T18:36:10.410Z,13.65
2023-04-25T18:38:38.696Z,16.95
2023-04-25T18:41:47.932Z,12.73
2023-04-25T18:44:09.552Z,16.42
2023-04-25T18:46:43.699Z,22.35
2023-04-25T18:49:12.437Z,15.57
2023-04-25T18:51:41.888Z,13.63
2023-04-25T18:54:12.137Z,15.63
2023-04-25T18:56:44.360Z,12.23
2023-04-25T18:59:12.714Z,17.05
2023-04-25T19:01:42.309Z,15.60
2023-04-25T19:04:11.430Z,11.23
2023-04-25T19:06:42.673Z,16.65
2023-04-25T19:09:11.337Z,12.10
2023-04-25T19:11:40.189Z,12.88
2023-04-25T19:14:10.415Z,13.63
2023-04-25T19:16:40.167Z,17.45
2023-04-25T19:19:13.311Z,12.02
2023-04-25T19:21:50.726Z,13.60
2023-04-25T19:24:24.370Z,14.75
2023-04-25T19:26:52.901Z,15.68
2023-04-25T19:29:30.346Z,17.30
2023-04-25T19:32:00.043Z,12.98
2023-04-25T19:34:29.627Z,13.60
2023-04-25T19:36:58.146Z,13.77
2023-04-25T19:39:26.554Z,12.75
2023-04-25T19:41:56.999Z,14.68
2023-04-25T19:44:26.135Z,10.50
2023-04-25T19:46:56.493Z,15.25
2023-04-25T19:49:28.373Z,11.05
2023-04-25T19:51:58.908Z,12.05
2023-04-25T19:54:34.487Z,13.82
2023-04-25T19:57:06.925Z,11.93
2023-04-25T19:59:36.222Z,12.00
2023-04-25T20:02:11.465Z,14.50
2023-04-25T20:04:42.575Z,15.77
2023-04-25T20:07:12.027Z,14.95
2023-04-25T20:09:40.598Z,13.60
2023-04-25T20:12:12.089Z,8.05
2023-04-25T20:14:46.662Z,14.15
2023-04-25T20:17:17.651Z,12.55
2023-04-25T20:19:48.304Z,17.13
2023-04-25T20:22:17.952Z,11.85
2023-04-25T20:24:50.382Z,16.77
2023-04-25T20:27:27.067Z,10.25
2023-04-25T20:30:04.428Z,13.07
2023-04-25T20:32:34.872Z,12.25
2023-04-25T20:35:06.601Z,14.45
2023-04-25T20:37:37.217Z,11.75
2023-04-25T20:40:09.062Z,9.88
2023-04-25T20:42:39.099Z,10.45
2023-04-25T20:45:13.638Z,7.28
2023-04-25T20:47:44.888Z,10.60
2023-04-25T20:50:15.372Z,7.30
2023-04-25T20:52:44.574Z,12.40
2023-04-25T20:55:19.167Z,10.73
2023-04-25T20:58:03.582Z,9.95
2023-04-25T21:00:41.288Z,10.57
2023-04-25T21:03:21.668Z,10.32
2023-04-25T21:05:50.749Z,10.02
2023-04-25T21:08:19.379Z,10.80
2023-04-25T21:10:47.788Z,12.73
2023-04-25T21:13:19.224Z,12.30
2023-04-25T21:15:47.795Z,10.27
2023-04-25T21:18:17.951Z,9.82
2023-04-25T21:20:47.880Z,8.00
2023-04-25T21:23:22.443Z,12.80
2023-04-25T21:25:55.150Z,9.60
2023-04-25T21:28:23.940Z,13.52
2023-04-25T21:30:52.663Z,9.52
2023-04-25T21:33:25.520Z,11.77
2023-04-25T21:36:02.253Z,7.60
2023-04-25T21:38:30.828Z,7.90
2023-04-25T21:41:02.351Z,11.20
2023-04-25T21:43:35.661Z,10.90
2023-04-25T21:48:37.665Z,11.65
2023-04-25T21:51:12.779Z,10.07
2023-04-25T21:53:42.657Z,9.32
2023-04-25T21:56:11.501Z,8.05
2023-04-25T21:58:39.991Z,12.93
2023-04-25T22:01:08.925Z,11.63
2023-04-25T22:03:39.907Z,12.50
2023-04-25T22:06:10.971Z,8.63
2023-04-25T22:08:39.714Z,9.57
2023-04-25T22:11:09.219Z,7.80
2023-04-25T22:13:39.129Z,8.70
2023-04-25T22:16:17.523Z,13.75
2023-04-25T22:18:48.758Z,5.82
2023-04-25T22:21:19.795Z,7.72
2023-04-25T22:23:48.417Z,9.65
2023-04-25T22:26:18.150Z,9.35
2023-04-25T22:28:46.594Z,9.95
2023-04-25T22:31:17.746Z,8.63
2023-04-25T22:33:54.913Z,9.73
2023-04-25T22:36:29.757Z,13.55
2023-04-25T22:38:58.394Z,8.73
2023-04-25T22:41:28.100Z,9.70
2023-04-25T22:44:04.294Z,13.13
2023-04-25T22:46:39.864Z,13.15
2023-04-25T22:49:13.990Z,11.68
2023-04-25T22:51:44.567Z,12.65
2023-04-25T22:54:15.210Z,9.73
2023-04-25T22:56:44.515Z,16.08
2023-04-25T22:59:18.269Z,10.75
2023-04-25T23:01:46.938Z,11.50
2023-04-25T23:04:18.973Z,8.38
2023-04-25T23:06:48.038Z,10.88
2023-04-25T23:09:17.561Z,10.07
2023-04-25T23:11:46.169Z,11.63
2023-04-25T23:14:15.806Z,12.23
2023-04-25T23:16:45.670Z,10.35
2023-04-25T23:19:21.767Z,9.00
2023-04-25T23:21:52.180Z,7.88
2023-04-25T23:24:23.394Z,10.13
2023-04-25T23:26:52.398Z,11.00
2023-04-25T23:29:21.203Z,11.82
2023-04-25T23:31:55.643Z,15.30
2023-04-25T23:34:25.632Z,10.57
2023-04-25T23:36:56.038Z,10.65
2023-04-25T23:39:27.781Z,10.18
2023-04-25T23:41:56.476Z,9.77
2023-04-25T23:44:25.685Z,13.80
2023-04-25T23:47:01.875Z,11.70
2023-04-25T23:49:34.855Z,9.02
2023-04-25T23:52:05.326Z,13.65
2023-04-25T23:54:42.163Z,10.18
2023-04-25T23:57:12.353Z,12.15
2023-04-25T23:59:41.343Z,12.52
